Harrells, North Carolina
Current Conditions -  °F | °C
As of 6:15 AM on Friday 24 Oct 2014 (Local Time) from KCTZ Reporting Station
Clear Clear  
Wind Chill: 47°   Ceiling: Unl
Heat Index: 47°   Visibility: 10mi
Dew Point: 45°   Wind: 0mph
Humidity: 95%   Direction: NA
Pressure: 30.02"   Gusts: NA
Location:  34.73°N, 78.2°W
Report Text: KCTZ 241015Z AUTO 00000KT 10SM CLR 08/07 A3002 RMK AO2 T00810073
Loading
Personal Weather Stations






























Interactive Weather Map
Tropical Storm Tracking
New forecast layout! Learn more

10-Day Weather Forecast

Advertisements
Track Severe Weather on mobile